ADDS METAR Data INFO
IDs: Format: Raw Decoded Include TAF

Data at: 0113 UTC 24 Jun 2018

KHEI 240053Z AUTO 33004KT 10SM CLR 18/14 A2978 RMK AO2 SLP077 T01830144 $
KHEI 232353Z AUTO 36004KT 10SM BKN100 OVC110 18/16 A2975 RMK AO2 RAE13 SLP066 P0000 60034 T01830161 10228 20156 50002 $
KHEI 232253Z AUTO 36004KT 4SM RA BR OVC070 17/16 A2976 RMK AO2 LTG DSNT SW RAB31 SLP073 P0001 T01720156 $
KHEI 232153Z AUTO 36004KT 10SM FEW028 OVC100 18/16 A2976 RMK AO2 LTG DSNT SW RAE38 SLP070 P0000 T01780156 $
KHEI 232053Z AUTO 35007KT 10SM -RA FEW055 OVC080 17/14 A2975 RMK AO2 LTG DSNT N TSE01B03E20 SLP066 P0000 60033 T01670144 50001 $
KHEI 232026Z AUTO 35005KT 10SM -RA FEW028 BKN060 OVC080 16/14 A2975 RMK AO2 LTG DSNT N AND SE TSE01B03E20 P0000 T01560139 $
KHEI 232000Z AUTO 05003KT 7SM -TSRA SCT026 BKN038 OVC060 17/15 A2977 RMK AO2 LTG DSNT N AND SE AND NW P0000 T01670150 $
KHEI 231953Z AUTO 00000KT 2 1/2SM TSRA BR FEW024 BKN038 OVC060 16/14 A2976 RMK AO2 LTG DSNT N AND SE AND NW RAB1859 TSE40 SLP073 P0033 T01610144 $
KHEI 231933Z AUTO 31010KT 2 1/2SM +TSRA BR FEW019 BKN035 OVC055 17/14 A2975 RMK AO2 LTG DSNT N AND NW RAB1859 P0027 T01670144 $
KHEI 231922Z AUTO 10SM -TSRA FEW015 BKN027 OVC040 17/13 A2975 RMK AO2 LTG DSNT ALQDS RAB1859 P0024 T01670133 $
KHEI 231904Z AUTO 21006G21KT 1 3/4SM +TSRA SCT019 BKN025 OVC038 17/13 A2974 RMK AO2 VIS 3/4V5 LTG DSNT S AND NW RAB1859 P0013 T01670133 $
KHEI 231853Z AUTO 27010KT 10SM TS BKN021 OVC033 19/14 A2974 RMK AO2 LTG DSNT S AND NW TSE04B37 SLP061 T01940144 $
KHEI 231843Z AUTO 24007KT 10SM TS BKN021 OVC033 20/15 A2974 RMK AO2 LTG DSNT S-NW TSE04B37 T02000150 $
KHEI 231830Z AUTO 23008KT 10SM BKN022 21/15 A2974 RMK AO2 LTG DSNT S-NW TSE04 T02110150 $
KHEI 231819Z AUTO VRB03KT 10SM SCT022 22/14 A2974 RMK AO2 LTG DSNT S-NW TSE04 T02170144 $
KHEI 231810Z AUTO 14004KT 10SM VCTS CLR 22/15 A2974 RMK AO2 LTG DSNT S-NW TSE04 T02220150 $
KHEI 231753Z AUTO 00000KT 10SM TS CLR 21/14 A2974 RMK AO2 LTG DSNT S-W TSB49 SLP061 T02110144 10217 20133 50000 $
KHEI 231748Z AUTO 11004KT 10SM VCTS FEW023 FEW037 22/15 A2975 RMK AO2 LTG DSNT S-W $
KHEI 231740Z AUTO VRB03KT 10SM SCT020 SCT036 22/16 A2975 RMK AO2 LTG DSNT S-W T02170156 $
KHEI 231716Z AUTO 11003KT 10SM OVC021 20/15 A2975 RMK AO2 T02000150 $
KHEI 231701Z AUTO 00000KT 10SM VCTS BKN020 OVC025 20/14 A2975 RMK AO2 T02000144 $
KHEI 231653Z AUTO 00000KT 10SM BKN022 OVC027 20/14 A2975 RMK AO2 SLP063 T02000144 $
KHEI 231631Z AUTO 00000KT 10SM BKN020 19/14 A2975 RMK AO2 T01940144
KHEI 231553Z AUTO 00000KT 10SM FEW036 19/15 A2974 RMK AO2 SLP062 T01890150
KHEI 231516Z AUTO 00000KT 10SM SCT004 BKN035 18/16 A2975 RMK AO2 T01780156
KHEI 231453Z AUTO 00000KT 10SM BKN003 OVC035 16/15 A2975 RMK AO2 SLP067 T01560150 53000
KHEI 231418Z AUTO 19004KT 5SM BR OVC002 15/15 A2975 RMK AO2 T01500150
KHEI 231404Z AUTO 14003KT 3SM BR OVC001 15/14 A2975 RMK AO2 T01500144
KHEI 231353Z AUTO 00000KT 1SM BR VV001 15/14 A2975 RMK AO2 SLP066 T01500144
KHEI 231253Z AUTO 00000KT M1/4SM FG VV001 14/14 A2974 RMK AO2 SLP065 T01390139
KHEI 231212Z AUTO 00000KT 1/4SM FG VV001 13/13 A2975 RMK AO2 T01330133
KHEI 231205Z AUTO 00000KT 1/4SM FG VV002 13/13 A2974 RMK AO2 T01330133
KHEI 231153Z AUTO 17003KT 1/4SM FG VV001 13/13 A2975 RMK AO2 SLP068 70009 T01330133 10144 20111 52006
KHEI 231101Z AUTO 00000KT 1/4SM FG VV001 12/11 A2974 RMK AO2 T01170111
KHEI 231053Z AUTO 00000KT 1/4SM FG VV002 12/12 A2974 RMK AO2 SLP067 T01170117
KHEI 231039Z AUTO 00000KT 1/4SM FG VV002 11/11 A2974 RMK AO2 T01110111
KHEI 231029Z AUTO 00000KT 1/4SM FG SCT004 SCT075 BKN100 12/12 A2974 RMK AO2 T01170117
KHEI 231020Z AUTO 00000KT 1 3/4SM BR FEW070 BKN095 13/12 A2974 RMK AO2 T01280122
KHEI 230953Z AUTO 00000KT 5SM BR OVC085 13/13 A2974 RMK AO2 SLP056 T01330128
KHEI 230945Z AUTO 00000KT 4SM BR OVC085 13/13 A2974 RMK AO2 T01280128
KHEI 230938Z AUTO 30003KT 2 1/2SM BR OVC085 13/12 A2974 RMK AO2 T01280122
KHEI 230925Z AUTO 00000KT 3/4SM BR FEW060 OVC085 13/12 A2973 RMK AO2 T01280122
KHEI 230914Z AUTO 00000KT 1 1/2SM BR FEW060 BKN085 12/12 A2973 RMK AO2 T01220122
KHEI 230853Z AUTO 00000KT 6SM BR FEW065 SCT085 BKN120 14/13 A2973 RMK AO2 SLP052 T01390133 58009
KHEI 230753Z AUTO 00000KT 9SM SCT055 OVC120 14/13 A2974 RMK AO2 SLP060 T01390133
KHEI 230653Z AUTO 33003KT 9SM FEW010 FEW060 BKN100 14/13 A2975 RMK AO2 SLP065 T01390133 402610117
KHEI 230553Z AUTO 00000KT 10SM OVC080 14/14 A2976 RMK AO2 SLP066 60002 T01440139 10161 20144 58008
KHEI 230453Z AUTO 15003KT 10SM FEW060 OVC085 14/14 A2978 RMK AO2 SLP072 T01440139
KHEI 230353Z AUTO 00000KT 10SM FEW032 BKN075 14/13 A2979 RMK AO2 SLP077 T01440133
KHEI 230253Z AUTO 11009KT 10SM BKN065 16/14 A2979 RMK AO2 SLP075 60002 T01560139 55003
KHEI 230153Z AUTO 31006KT 10SM OVC070 16/14 A2977 RMK AO2 LTG DSNT SE RAE00B21E30 SLP071 P0000 T01560144
KHEI 230053Z AUTO 00000KT 10SM -RA OVC080 16/13 A2976 RMK AO2 SLP070 P0002 T01560133
KHEI 222353Z AUTO 25013KT 6SM RA BR OVC065 15/13 A2979 RMK AO2 PK WND 21028/2310 WSHFT 2310 LTG DSNT N TSB19E46 SLP083 P0007 60007 T01500128 10261 20144 51003
KHEI 222324Z AUTO 23014KT 5SM -TSRA BR FEW024 SCT039 OVC065 15/13 A2982 RMK AO2 PK WND 21028/2310 WSHFT 2310 LTG DSNT ALQDS TSB19 P0002 T01500133
KHEI 222305Z AUTO 14004KT 7SM VCTS -RA OVC065 17/14 A2980 RMK AO2 LTG DSNT ALQDS P0000 T01720139
KHEI 222253Z AUTO 12006KT 8SM -RA BKN070 OVC090 17/14 A2980 RMK AO2 LTG DSNT ALQDS RAB21 TSB16E31B37E52 SLP083 P0000 T01720139
KHEI 222222Z AUTO 15008KT 10SM -TSRA FEW028 BKN095 OVC110 19/12 A2980 RMK AO2 LTG DSNT ALQDS RAB21 TSB16 P0000 T01940122
KHEI 222153Z AUTO 15010KT 10SM VCTS FEW060 BKN095 23/12 A2979 RMK AO2 LTG DSNT S-W SLP074 T02280117
KHEI 222053Z AUTO 17007KT 140V200 10SM OVC075 26/12 A2981 RMK AO2 SLP080 60000 T02610122 55015
KHEI 221953Z AUTO 16009KT 10SM FEW048 BKN070 OVC085 22/12 A2981 RMK AO2 RAE44 SLP081 P0000 T02170117
KHEI 221853Z AUTO 22005KT 10SM -RA FEW050 OVC070 19/14 A2984 RMK AO2 RAB08 SLP095 P0000 T01890144 $
KHEI 221753Z AUTO 21011KT 10SM OVC100 19/14 A2986 RMK AO2 SLP099 T01940144 10244 20144 55001 $
KHEI 221653Z AUTO 19012KT 10SM SCT060 BKN110 22/14 A2985 RMK AO2 SLP094 T02220144 $
KHEI 221553Z AUTO 16011G16KT 10SM BKN120 22/14 A2985 RMK AO2 SLP095 T02170139 $
KHEI 221453Z AUTO 15010KT 10SM SCT080 OVC100 19/13 A2986 RMK AO2 SLP097 T01940133 58010 $
KHEI 221353Z AUTO 14011KT 10SM FEW075 18/13 A2987 RMK AO2 SLP101 T01830128 $